Time;durP1;ratioP1;P1;durP2;ratioP2;P2;SDS_P1;SDS_P2;PMS_P1;PMS_P2;Temp;Humidity;BMP_temperature;BMP_pressure;BME280_temperature;BME280_humidity;BME280_pressure;Samples;Min_cycle;Max_cycle;Signal;HPM_P1;HPM_P2
2022/04/13 00:00:40;;;;;;;12.55;7.00;;;12.80;99.90;;;;;;4845007;29;20045;-86
2022/04/13 00:03:15;;;;;;;10.52;6.55;;;12.80;99.90;;;;;;4860845;29;20131;-86
2022/04/13 00:05:41;;;;;;;22.38;6.78;;;12.70;99.90;;;;;;4863147;29;20044;-85
2022/04/13 00:08:07;;;;;;;13.15;7.13;;;13.20;99.90;;;;;;4864111;29;20075;-85
2022/04/13 00:10:35;;;;;;;10.95;7.07;;;12.80;99.90;;;;;;4863690;29;20413;-86
2022/04/13 00:13:01;;;;;;;13.43;7.20;;;12.60;99.90;;;;;;4863766;29;20048;-87
2022/04/13 00:15:30;;;;;;;14.70;7.22;;;12.60;99.90;;;;;;4863321;29;20084;-85
2022/04/13 00:17:56;;;;;;;12.20;7.00;;;12.50;99.90;;;;;;4864216;29;20135;-85
2022/04/13 00:20:22;;;;;;;13.93;6.88;;;12.50;99.90;;;;;;4863164;29;20132;-86
2022/04/13 00:22:48;;;;;;;11.18;7.03;;;12.60;99.90;;;;;;4863695;29;20455;-86
2022/04/13 00:25:14;;;;;;;13.95;7.32;;;12.40;99.90;;;;;;4862953;29;20139;-86
2022/04/13 00:27:39;;;;;;;12.98;7.03;;;12.30;99.90;;;;;;4863211;29;20089;-86
2022/04/13 00:30:12;;;;;;;14.32;7.00;;;12.30;99.90;;;;;;4863377;29;20049;-86
2022/04/13 00:32:37;;;;;;;10.25;7.60;;;12.20;99.90;;;;;;4864042;29;20049;-86
2022/04/13 00:35:04;;;;;;;11.63;7.13;;;12.30;99.90;;;;;;4878136;29;20128;-85
2022/04/13 00:37:31;;;;;;;10.93;6.82;;;12.20;99.90;;;;;;4863358;29;20490;-85
2022/04/13 00:39:57;;;;;;;11.77;7.05;;;12.20;99.90;;;;;;4862983;29;20041;-85
2022/04/13 00:42:32;;;;;;;10.85;6.85;;;12.10;99.90;;;;;;4850290;29;20055;-86
2022/04/13 00:44:58;;;;;;;10.55;7.15;;;12.00;99.90;;;;;;4859696;29;20131;-85
2022/04/13 00:47:24;;;;;;;12.20;7.13;;;11.90;99.90;;;;;;4844019;29;20124;-86
2022/04/13 00:49:50;;;;;;;12.40;7.50;;;12.30;99.90;;;;;;4844842;29;20117;-86
2022/04/13 00:52:26;;;;;;;12.98;7.35;;;11.70;99.90;;;;;;4844513;29;20048;-85
2022/04/13 00:54:53;;;;;;;10.85;6.57;;;11.60;99.90;;;;;;4859500;29;20056;-85
2022/04/13 00:57:21;;;;;;;10.93;6.97;;;11.50;99.90;;;;;;4875139;29;20045;-85
2022/04/13 00:59:48;;;;;;;11.38;6.97;;;11.30;99.90;;;;;;4859559;29;20088;-85
2022/04/13 01:02:27;;;;;;;10.40;7.43;;;11.60;99.90;;;;;;4859264;29;20060;-85
2022/04/13 01:04:54;;;;;;;11.15;7.53;;;11.20;99.90;;;;;;4859844;29;20465;-85
2022/04/13 01:07:22;;;;;;;13.25;7.90;;;11.90;99.90;;;;;;4859208;29;20082;-85
2022/04/13 01:09:50;;;;;;;10.70;7.68;;;11.30;99.90;;;;;;4859117;29;20059;-85
2022/04/13 01:12:16;;;;;;;10.52;7.47;;;11.60;99.90;;;;;;4858842;29;20577;-85
2022/04/13 01:14:47;;;;;;;11.95;7.40;;;11.10;99.90;;;;;;4843908;29;20063;-86
2022/04/13 01:17:13;;;;;;;9.07;6.85;;;11.30;99.90;;;;;;4843266;29;20401;-85
2022/04/13 01:19:39;;;;;;;10.65;7.35;;;11.60;99.90;;;;;;4844342;29;20259;-86
2022/04/13 01:22:23;;;;;;;14.23;7.47;;;11.10;99.90;;;;;;4843385;29;20476;-86
2022/04/13 01:24:49;;;;;;;13.07;7.90;;;11.10;99.90;;;;;;4859577;29;20532;-85
2022/04/13 01:27:15;;;;;;;11.65;8.18;;;11.10;99.90;;;;;;4859348;29;20080;-86
2022/04/13 01:29:42;;;;;;;11.60;7.78;;;11.80;99.90;;;;;;4873660;29;20049;-86
2022/04/13 01:32:17;;;;;;;14.55;7.70;;;11.00;99.90;;;;;;4861690;29;20040;-85
2022/04/13 01:34:50;;;;;;;9.98;7.10;;;11.00;99.90;;;;;;4861740;29;20052;-85
2022/04/13 01:37:17;;;;;;;13.75;8.07;;;10.90;99.90;;;;;;4861669;29;20052;-85
2022/04/13 01:39:54;;;;;;;13.73;7.88;;;10.90;99.90;;;;;;4862143;29;20103;-85
2022/04/13 01:42:20;;;;;;;12.85;7.93;;;10.80;99.90;;;;;;4861907;29;20186;-85
2022/04/13 01:44:47;;;;;;;15.20;8.73;;;10.90;99.90;;;;;;4861300;29;20040;-85
2022/04/13 01:47:14;;;;;;;13.02;7.72;;;11.40;99.90;;;;;;4861892;29;20080;-85
2022/04/13 01:49:40;;;;;;;9.77;7.50;;;10.80;99.90;;;;;;4861416;29;20067;-86
2022/04/13 01:52:10;;;;;;;11.73;8.18;;;10.90;99.90;;;;;;4877072;29;20143;-85
2022/04/13 01:54:36;;;;;;;11.20;7.95;;;10.80;99.90;;;;;;4876665;29;20048;-85
2022/04/13 01:57:02;;;;;;;16.42;7.95;;;10.80;99.90;;;;;;4877467;29;20056;-84
2022/04/13 01:59:28;;;;;;;14.60;8.20;;;10.80;99.90;;;;;;4876332;29;20481;-85
2022/04/13 02:01:54;;;;;;;12.05;7.88;;;10.90;99.90;;;;;;4878123;29;20085;-85
2022/04/13 02:04:40;;;;;;;13.40;8.80;;;11.50;99.90;;;;;;4876786;29;20425;-85
2022/04/13 02:07:06;;;;;;;12.90;8.60;;;10.80;99.90;;;;;;4877377;29;20072;-84
2022/04/13 02:09:32;;;;;;;15.80;8.85;;;10.80;99.90;;;;;;4861493;29;20091;-84
2022/04/13 02:11:57;;;;;;;13.98;8.77;;;11.10;99.90;;;;;;4861687;29;20044;-85
2022/04/13 02:14:23;;;;;;;14.02;8.68;;;10.80;99.90;;;;;;4875680;29;20119;-85
2022/04/13 02:16:49;;;;;;;13.68;8.75;;;11.00;99.90;;;;;;4862176;29;20048;-84
2022/04/13 02:19:14;;;;;;;12.38;8.85;;;11.00;99.90;;;;;;4860574;29;20049;-85
2022/04/13 02:21:40;;;;;;;17.63;8.98;;;10.90;99.90;;;;;;4861692;29;20056;-85
2022/04/13 02:24:07;;;;;;;13.93;8.27;;;10.90;99.90;;;;;;4877360;29;20063;-84
2022/04/13 02:26:33;;;;;;;13.63;8.65;;;10.90;99.90;;;;;;4876659;29;20041;-85
2022/04/13 02:29:07;;;;;;;15.07;8.77;;;11.30;99.90;;;;;;4860712;29;20063;-84
2022/04/13 02:31:33;;;;;;;14.50;9.77;;;11.00;99.90;;;;;;4861654;29;20445;-85
2022/04/13 02:33:58;;;;;;;15.98;9.02;;;11.00;99.90;;;;;;4860969;29;20053;-85
2022/04/13 02:36:24;;;;;;;18.20;9.13;;;11.00;99.90;;;;;;4860895;29;20048;-85
2022/04/13 02:38:50;;;;;;;14.52;9.50;;;11.00;99.90;;;;;;4876813;29;20131;-86
2022/04/13 02:41:42;;;;;;;15.73;9.63;;;11.00;99.90;;;;;;4860508;29;20111;-86
2022/04/13 02:44:08;;;;;;;15.13;9.60;;;11.10;99.90;;;;;;4874597;29;20072;-85
2022/04/13 02:46:45;;;;;;;18.13;10.13;;;11.10;99.90;;;;;;4859223;29;20060;-86
2022/04/13 02:49:11;;;;;;;18.02;10.52;;;11.60;99.90;;;;;;4876393;29;20132;-85
2022/04/13 02:51:37;;;;;;;18.55;9.88;;;11.20;99.90;;;;;;4858216;29;20140;-86
2022/04/13 02:54:04;;;;;;;20.88;10.40;;;11.20;99.90;;;;;;4857328;29;20107;-85
2022/04/13 02:56:29;;;;;;;15.70;9.80;;;11.20;99.90;;;;;;4858204;29;20117;-86
2022/04/13 02:58:55;;;;;;;22.85;11.32;;;11.20;99.90;;;;;;4873594;29;20048;-86
2022/04/13 03:01:21;;;;;;;18.88;10.57;;;11.20;99.90;;;;;;4857298;29;20398;-86
2022/04/13 03:03:47;;;;;;;18.40;11.15;;;11.60;99.90;;;;;;4873952;29;20045;-86
2022/04/13 03:06:13;;;;;;;18.67;10.35;;;11.90;99.90;;;;;;4873194;29;20401;-85
2022/04/13 03:08:38;;;;;;;19.55;10.93;;;11.70;99.90;;;;;;4858466;29;20528;-87
2022/04/13 03:11:04;;;;;;;19.20;10.75;;;11.20;99.90;;;;;;4857997;29;20049;-87
2022/04/13 03:13:36;;;;;;;27.10;11.82;;;11.20;99.90;;;;;;4858985;29;20119;-87
2022/04/13 03:16:02;;;;;;;19.95;10.70;;;11.10;99.90;;;;;;4857529;29;20399;-86
2022/04/13 03:18:28;;;;;;;20.73;11.95;;;11.20;99.90;;;;;;4858315;29;20053;-86
2022/04/13 03:20:53;;;;;;;19.40;11.45;;;11.50;99.90;;;;;;4858802;29;20100;-86
2022/04/13 03:23:19;;;;;;;21.20;12.15;;;11.20;99.90;;;;;;4857192;29;20773;-86
2022/04/13 03:25:52;;;;;;;20.67;12.48;;;11.40;99.90;;;;;;4874286;29;20462;-87
2022/04/13 03:28:23;;;;;;;18.15;11.57;;;11.30;99.90;;;;;;4858863;29;20520;-87
2022/04/13 03:30:50;;;;;;;20.92;12.23;;;11.40;99.90;;;;;;4857812;29;20394;-86
2022/04/13 03:33:17;;;;;;;22.35;12.70;;;11.50;99.90;;;;;;4857788;29;20417;-86
2022/04/13 03:35:49;;;;;;;23.08;12.38;;;11.50;99.90;;;;;;4857879;29;20053;-85
2022/04/13 03:38:15;;;;;;;18.88;12.48;;;11.70;99.90;;;;;;4857873;29;20401;-86
2022/04/13 03:40:40;;;;;;;22.52;12.15;;;11.60;99.90;;;;;;4873788;29;20057;-86
2022/04/13 03:43:06;;;;;;;18.45;11.98;;;11.50;99.90;;;;;;4856986;29;20569;-86
2022/04/13 03:45:32;;;;;;;24.08;12.30;;;11.50;99.90;;;;;;4857275;29;20471;-85
2022/04/13 03:47:57;;;;;;;23.15;11.80;;;11.40;99.90;;;;;;4872729;29;20498;-86
2022/04/13 03:50:23;;;;;;;22.77;12.38;;;11.40;99.90;;;;;;4856552;29;20053;-85
2022/04/13 03:52:53;;;;;;;23.00;12.57;;;11.30;99.90;;;;;;4858462;29;20144;-86
2022/04/13 03:55:22;;;;;;;24.80;12.85;;;11.70;99.90;;;;;;4857308;29;20103;-87
2022/04/13 03:57:50;;;;;;;24.50;12.90;;;11.20;99.90;;;;;;4857826;29;20049;-85
2022/04/13 04:00:16;;;;;;;25.02;12.30;;;11.20;99.90;;;;;;4859731;29;20056;-85
2022/04/13 04:02:51;;;;;;;23.15;14.43;;;11.10;99.90;;;;;;4861236;29;20060;-86
2022/04/13 04:05:17;;;;;;;27.88;14.80;;;12.00;99.90;;;;;;4851514;29;20402;-87
2022/04/13 04:07:43;;;;;;;22.10;14.52;;;11.40;99.90;;;;;;4842402;29;20058;-86
2022/04/13 04:10:11;;;;;;;22.55;14.55;;;11.10;99.90;;;;;;4842037;29;20045;-86
2022/04/13 04:12:39;;;;;;;26.77;14.63;;;11.10;99.90;;;;;;4858070;29;20136;-86
2022/04/13 04:15:09;;;;;;;26.15;15.10;;;11.10;99.90;;;;;;4857286;29;20088;-87
2022/04/13 04:17:36;;;;;;;30.77;15.98;;;11.10;99.90;;;;;;4858701;29;20588;-87
2022/04/13 04:20:04;;;;;;;25.05;16.05;;;11.10;99.90;;;;;;4851787;29;20041;-86
2022/04/13 04:22:30;;;;;;;32.65;16.20;;;11.10;99.90;;;;;;4861291;29;20132;-85
2022/04/13 04:25:07;;;;;;;25.70;15.43;;;11.10;99.90;;;;;;4875772;29;20451;-86
2022/04/13 04:27:33;;;;;;;23.60;15.13;;;11.10;99.90;;;;;;4861788;29;20071;-86
2022/04/13 04:29:59;;;;;;;30.08;17.38;;;11.50;99.90;;;;;;4860191;29;20530;-86
2022/04/13 04:32:25;;;;;;;28.00;15.48;;;11.30;99.90;;;;;;4860323;29;20525;-86
2022/04/13 04:34:51;;;;;;;25.33;14.50;;;11.80;99.90;;;;;;4860457;29;20056;-86
2022/04/13 04:37:21;;;;;;;22.92;14.18;;;11.00;99.90;;;;;;4876401;29;20394;-86
2022/04/13 04:39:46;;;;;;;29.38;14.63;;;10.90;99.90;;;;;;4860032;29;20553;-86
2022/04/13 04:42:12;;;;;;;22.08;14.18;;;10.90;99.90;;;;;;4848846;29;20045;-86
2022/04/13 04:44:37;;;;;;;23.60;14.55;;;11.00;99.90;;;;;;4842048;29;20136;-87
2022/04/13 04:47:03;;;;;;;22.33;14.65;;;11.10;99.90;;;;;;4841546;29;20489;-86
2022/04/13 04:49:40;;;;;;;22.35;13.95;;;10.70;99.90;;;;;;4841670;29;20045;-86
2022/04/13 04:52:06;;;;;;;27.48;14.30;;;10.60;99.90;;;;;;4842745;29;20046;-86
2022/04/13 04:54:32;;;;;;;26.40;12.65;;;10.60;99.90;;;;;;4841434;29;20049;-87
2022/04/13 04:56:57;;;;;;;20.88;12.68;;;11.10;99.90;;;;;;4826605;29;20053;-86
2022/04/13 04:59:23;;;;;;;25.67;13.23;;;10.70;99.90;;;;;;4826193;29;20052;-86
2022/04/13 05:01:49;;;;;;;19.80;12.80;;;10.60;99.90;;;;;;4841865;29;20048;-86
2022/04/13 05:04:23;;;;;;;20.20;13.45;;;10.90;99.90;;;;;;4825812;29;20874;-86
2022/04/13 05:06:49;;;;;;;23.20;14.52;;;10.40;99.90;;;;;;4825914;29;20061;-84
2022/04/13 05:09:17;;;;;;;19.27;12.68;;;10.60;99.90;;;;;;4824425;29;20042;-85
2022/04/13 05:11:43;;;;;;;23.33;14.20;;;10.50;99.90;;;;;;4825793;29;20132;-85
2022/04/13 05:14:09;;;;;;;23.90;13.40;;;11.00;99.90;;;;;;4839953;29;20057;-84
2022/04/13 05:16:35;;;;;;;23.40;13.88;;;10.90;99.90;;;;;;4856366;29;20068;-84
2022/04/13 05:19:01;;;;;;;21.67;14.52;;;10.70;99.90;;;;;;4840049;29;20129;-85
2022/04/13 05:21:26;;;;;;;22.75;14.95;;;11.00;99.90;;;;;;4840184;29;20050;-84
2022/04/13 05:23:52;;;;;;;28.30;13.57;;;10.70;99.90;;;;;;4855970;29;20077;-85
2022/04/13 05:26:18;;;;;;;24.77;14.80;;;11.10;99.90;;;;;;4840975;29;20053;-85
2022/04/13 05:28:46;;;;;;;23.70;15.23;;;10.80;99.90;;;;;;4840504;29;20051;-85
2022/04/13 05:31:21;;;;;;;24.63;14.88;;;11.40;99.90;;;;;;4843118;29;20096;-85
2022/04/13 05:33:47;;;;;;;28.08;15.05;;;11.00;99.90;;;;;;4843827;29;20408;-85
2022/04/13 05:36:13;;;;;;;28.23;15.38;;;11.10;99.90;;;;;;4858391;29;20561;-85
2022/04/13 05:38:40;;;;;;;30.45;16.60;;;11.10;99.90;;;;;;4844076;29;20047;-85
2022/04/13 05:41:05;;;;;;;29.63;17.25;;;11.20;99.90;;;;;;4858245;29;20091;-84
2022/04/13 05:43:33;;;;;;;29.10;16.80;;;11.40;99.90;;;;;;4858196;29;20088;-84
2022/04/13 05:46:00;;;;;;;29.88;17.48;;;11.40;99.90;;;;;;4842723;29;20045;-85
2022/04/13 05:48:25;;;;;;;34.28;17.02;;;11.30;99.90;;;;;;4843830;29;20043;-85
2022/04/13 05:50:51;;;;;;;30.58;16.77;;;11.30;99.90;;;;;;4864173;29;20536;-85
2022/04/13 05:53:17;;;;;;;25.88;16.48;;;11.40;99.90;;;;;;4858602;29;20584;-85
2022/04/13 05:55:42;;;;;;;29.75;16.05;;;11.40;99.90;;;;;;4858988;29;20053;-86
2022/04/13 05:58:08;;;;;;;28.83;15.82;;;11.60;99.90;;;;;;4857446;29;20111;-85
2022/04/13 06:00:34;;;;;;;29.67;15.95;;;11.60;99.90;;;;;;4858779;29;20076;-87
2022/04/13 06:03:00;;;;;;;24.23;15.43;;;11.50;99.90;;;;;;4859549;29;20052;-86
2022/04/13 06:05:26;;;;;;;27.75;16.55;;;11.60;99.90;;;;;;4857879;29;20036;-85
2022/04/13 06:07:57;;;;;;;38.17;19.00;;;11.80;99.90;;;;;;4859451;29;20057;-86
2022/04/13 06:10:23;;;;;;;31.88;17.42;;;11.60;99.90;;;;;;4857837;29;20053;-85
2022/04/13 06:12:49;;;;;;;33.05;17.85;;;11.60;99.90;;;;;;4873609;29;20470;-85
2022/04/13 06:15:15;;;;;;;40.22;19.08;;;11.80;99.90;;;;;;4857283;29;20056;-85
2022/04/13 06:17:41;;;;;;;31.42;20.40;;;12.00;99.90;;;;;;4858076;29;20049;-85
2022/04/13 06:20:18;;;;;;;39.78;19.48;;;12.30;99.90;;;;;;4873790;29;20092;-85
2022/04/13 06:22:44;;;;;;;34.20;16.88;;;12.30;99.90;;;;;;4873310;29;20053;-85
2022/04/13 06:25:12;;;;;;;29.13;16.33;;;12.40;99.90;;;;;;4856540;29;20104;-85
2022/04/13 06:27:45;;;;;;;30.13;16.10;;;12.50;99.90;;;;;;4861198;29;20136;-85
2022/04/13 06:30:12;;;;;;;34.25;17.35;;;12.70;99.90;;;;;;4872966;29;20057;-85
2022/04/13 06:32:40;;;;;;;28.48;16.38;;;12.70;99.90;;;;;;4857909;29;20108;-85
2022/04/13 06:35:08;;;;;;;27.13;15.48;;;12.70;99.90;;;;;;4856699;29;20201;-85
2022/04/13 06:37:36;;;;;;;26.48;15.50;;;12.80;99.90;;;;;;4863129;29;20046;-84
2022/04/13 06:40:09;;;;;;;27.17;15.15;;;12.80;99.90;;;;;;4857032;29;20053;-85
2022/04/13 06:42:36;;;;;;;27.58;15.00;;;12.60;99.90;;;;;;4857218;29;20048;-84
2022/04/13 06:45:03;;;;;;;27.45;15.32;;;12.90;99.90;;;;;;4851518;29;20821;-85
2022/04/13 06:47:29;;;;;;;27.27;15.57;;;12.90;99.90;;;;;;4853786;29;20101;-85
2022/04/13 06:50:01;;;;;;;30.75;16.02;;;13.00;99.90;;;;;;4857932;29;20056;-84
2022/04/13 06:52:27;;;;;;;32.00;15.87;;;13.00;99.90;;;;;;4882681;29;20053;-85
2022/04/13 06:54:53;;;;;;;36.65;16.42;;;13.10;99.90;;;;;;4867839;29;20305;-85
2022/04/13 06:57:18;;;;;;;34.65;16.17;;;13.10;99.90;;;;;;4884268;29;20105;-85
2022/04/13 06:59:44;;;;;;;30.38;15.38;;;13.10;99.90;;;;;;4875976;29;20485;-85
2022/04/13 07:02:10;;;;;;;28.80;14.57;;;13.20;99.90;;;;;;4880741;29;20548;-85
2022/04/13 07:04:45;;;;;;;28.20;14.82;;;13.30;99.90;;;;;;4869827;29;20051;-85
2022/04/13 07:07:11;;;;;;;29.45;15.05;;;13.40;99.90;;;;;;4883429;29;20055;-86
2022/04/13 07:09:36;;;;;;;25.27;14.55;;;13.60;99.90;;;;;;4876225;29;20446;-86
2022/04/13 07:12:03;;;;;;;25.10;14.82;;;13.70;99.90;;;;;;4880254;29;20128;-85
2022/04/13 07:14:41;;;;;;;30.38;14.43;;;13.80;99.90;;;;;;4884994;29;20584;-86
2022/04/13 07:17:13;;;;;;;25.27;13.35;;;14.00;99.90;;;;;;4873498;29;20442;-85
2022/04/13 07:19:39;;;;;;;25.52;13.57;;;13.90;99.90;;;;;;4875848;29;20104;-86
2022/04/13 07:22:15;;;;;;;22.85;13.77;;;14.10;99.90;;;;;;4876096;29;20083;-85
2022/04/13 07:24:41;;;;;;;25.88;12.85;;;14.10;99.90;;;;;;4892190;29;20394;-86
2022/04/13 07:27:06;;;;;;;25.35;13.35;;;14.10;99.90;;;;;;4876120;29;20044;-85
2022/04/13 07:29:32;;;;;;;24.52;14.00;;;14.20;99.90;;;;;;4874708;29;20181;-86
2022/04/13 07:31:58;;;;;;;27.08;13.65;;;14.20;99.90;;;;;;4866701;29;20048;-86
2022/04/13 07:34:36;;;;;;;26.92;13.63;;;14.30;99.90;;;;;;4864205;29;20104;-86
2022/04/13 07:37:03;;;;;;;26.80;13.85;;;14.40;99.90;;;;;;4864158;29;20112;-86
2022/04/13 07:39:29;;;;;;;26.67;13.77;;;14.50;99.90;;;;;;4879735;29;20489;-87
2022/04/13 07:41:55;;;;;;;22.52;13.07;;;14.60;99.90;;;;;;4864485;29;20056;-86
2022/04/13 07:44:41;;;;;;;22.80;11.88;;;14.60;99.90;;;;;;4878835;29;20135;-87
2022/04/13 07:47:06;;;;;;;21.95;13.23;;;14.70;99.90;;;;;;4864201;29;20131;-86
2022/04/13 07:49:32;;;;;;;20.77;12.63;;;14.80;99.90;;;;;;4864144;29;20481;-86
2022/04/13 07:52:10;;;;;;;20.90;12.25;;;14.90;99.90;;;;;;4864452;29;20056;-87
2022/04/13 07:54:36;;;;;;;27.42;14.27;;;14.80;99.90;;;;;;4865030;29;20397;-87
2022/04/13 07:57:02;;;;;;;25.60;13.82;;;14.90;99.90;;;;;;4863943;29;20087;-87
2022/04/13 07:59:29;;;;;;;21.17;12.35;;;14.80;99.90;;;;;;4879539;29;20378;-87
2022/04/13 08:01:54;;;;;;;21.27;12.77;;;14.80;99.90;;;;;;4879794;29;20057;-87
2022/04/13 08:04:47;;;;;;;24.35;11.05;;;14.70;99.90;;;;;;4861142;29;20459;-90
2022/04/13 08:07:25;;;;;;;20.58;11.15;;;14.70;99.90;;;;;;4836110;29;20060;-86
2022/04/13 08:09:52;;;;;;;23.00;11.00;;;14.70;99.90;;;;;;4884116;29;20068;-86
2022/04/13 08:12:18;;;;;;;20.33;10.93;;;14.70;99.90;;;;;;4865994;29;20053;-86
2022/04/13 08:14:46;;;;;;;18.98;10.52;;;14.70;99.90;;;;;;4865677;29;20095;-86
2022/04/13 08:17:24;;;;;;;24.05;11.18;;;14.70;99.90;;;;;;4870318;29;20386;-86
2022/04/13 08:19:50;;;;;;;24.40;11.93;;;14.80;99.90;;;;;;4869128;29;20055;-86
2022/04/13 08:22:17;;;;;;;18.83;10.82;;;14.80;99.90;;;;;;4876121;29;20143;-86
2022/04/13 08:24:43;;;;;;;24.38;10.95;;;14.90;99.90;;;;;;4866671;29;20045;-86
2022/04/13 08:27:10;;;;;;;20.35;11.50;;;15.00;99.90;;;;;;4872510;29;20052;-86
2022/04/13 08:29:41;;;;;;;27.92;11.25;;;15.00;99.90;;;;;;4882772;29;20059;-86
2022/04/13 08:32:07;;;;;;;24.90;11.88;;;14.90;99.90;;;;;;4864485;29;20087;-90
2022/04/13 08:34:33;;;;;;;25.98;12.93;;;15.20;99.90;;;;;;4881085;29;20084;-86
2022/04/13 08:36:58;;;;;;;22.88;11.82;;;15.30;99.90;;;;;;4861032;29;20497;-87
2022/04/13 08:39:40;;;;;;;20.02;12.00;;;15.40;99.90;;;;;;4875554;29;20056;-87
2022/04/13 08:42:11;;;;;;;23.92;12.23;;;15.50;99.90;;;;;;4861049;29;20154;-86
2022/04/13 08:44:53;;;;;;;21.10;11.50;;;15.60;99.90;;;;;;4875286;29;20405;-86
2022/04/13 08:47:22;;;;;;;25.58;11.82;;;15.80;99.90;;;;;;4875744;29;20514;-86
2022/04/13 08:49:50;;;;;;;18.58;10.68;;;15.90;99.90;;;;;;4861285;29;20127;-85
2022/04/13 08:52:30;;;;;;;18.80;11.07;;;16.00;99.90;;;;;;4875656;29;20057;-86
2022/04/13 08:55:03;;;;;;;19.42;11.75;;;16.00;99.90;;;;;;4864034;29;20057;-85
2022/04/13 08:57:32;;;;;;;19.63;10.00;;;16.20;99.90;;;;;;4842048;29;20632;-86
2022/04/13 09:00:13;;;;;;;15.40;9.80;;;16.40;99.90;;;;;;4842678;29;20576;-86
2022/04/13 09:03:02;;;;;;;22.83;9.88;;;16.50;99.90;;;;;;4857698;29;20110;-86
2022/04/13 09:05:31;;;;;;;15.10;8.88;;;16.60;99.90;;;;;;4856452;29;20121;-85
2022/04/13 09:08:18;;;;;;;19.27;8.60;;;16.70;99.90;;;;;;4841512;29;20089;-86
2022/04/13 09:10:45;;;;;;;18.80;9.68;;;16.30;99.90;;;;;;4841827;29;20061;-86
2022/04/13 09:13:11;;;;;;;16.67;8.27;;;16.60;99.90;;;;;;4857163;29;20572;-86
2022/04/13 09:15:39;;;;;;;18.27;8.68;;;16.60;99.90;;;;;;4840776;29;20520;-86
2022/04/13 09:18:16;;;;;;;15.77;8.75;;;16.50;99.90;;;;;;4841740;29;20132;-85
2022/04/13 09:20:42;;;;;;;17.80;9.00;;;16.40;99.90;;;;;;4841161;29;20045;-86
2022/04/13 09:23:08;;;;;;;21.02;10.25;;;16.40;99.90;;;;;;4842277;29;20517;-87
2022/04/13 09:25:34;;;;;;;19.33;9.18;;;16.40;99.90;;;;;;4858139;29;20041;-85
2022/04/13 09:28:15;;;;;;;14.20;7.35;;;16.50;99.90;;;;;;4840880;29;20048;-86
2022/04/13 09:30:41;;;;;;;15.35;7.63;;;16.60;99.90;;;;;;4854333;29;20164;-86
2022/04/13 09:33:23;;;;;;;18.55;8.27;;;16.70;99.90;;;;;;4872065;29;20139;-85
2022/04/13 09:35:49;;;;;;;20.65;8.10;;;16.80;99.90;;;;;;4841251;29;20052;-86
2022/04/13 09:38:16;;;;;;;18.67;8.00;;;16.80;99.90;;;;;;4841315;29;20049;-87
2022/04/13 09:40:51;;;;;;;13.38;7.50;;;16.90;99.90;;;;;;4842465;29;20092;-87
2022/04/13 09:43:19;;;;;;;14.13;7.55;;;17.00;99.90;;;;;;4841174;29;20049;-87
2022/04/13 09:45:47;;;;;;;15.63;7.55;;;17.00;99.90;;;;;;4841447;29;20116;-85
2022/04/13 09:48:29;;;;;;;14.20;6.85;;;17.10;99.90;;;;;;4840893;29;20143;-86
2022/04/13 09:50:57;;;;;;;15.02;7.05;;;17.20;99.90;;;;;;4853006;29;20061;-86
2022/04/13 09:53:23;;;;;;;10.05;5.18;;;17.40;99.90;;;;;;4837988;29;20057;-86
2022/04/13 09:56:01;;;;;;;11.93;6.70;;;17.40;99.90;;;;;;4836369;29;20096;-85
2022/04/13 09:58:30;;;;;;;16.05;7.03;;;17.50;99.90;;;;;;4838382;29;20498;-86
2022/04/13 10:01:00;;;;;;;12.52;6.05;;;17.50;99.90;;;;;;4838303;29;20057;-87
2022/04/13 10:03:53;;;;;;;13.15;7.07;;;17.50;99.90;;;;;;4837631;29;20091;-85
2022/04/13 10:06:33;;;;;;;11.90;6.30;;;17.60;99.90;;;;;;4854631;29;20102;-86
2022/04/13 10:09:05;;;;;;;16.40;5.70;;;17.70;99.90;;;;;;4856639;29;20506;-87
2022/04/13 10:11:31;;;;;;;13.93;7.13;;;17.80;99.90;;;;;;4855824;29;20049;-87
2022/04/13 10:14:09;;;;;;;15.50;7.30;;;17.80;99.90;;;;;;4853794;29;20045;-86
2022/04/13 10:16:35;;;;;;;15.88;6.60;;;17.90;99.90;;;;;;4855892;29;20096;-86
2022/04/13 10:19:09;;;;;;;13.90;7.30;;;17.90;99.90;;;;;;4855017;29;20044;-84
2022/04/13 10:21:47;;;;;;;14.18;7.60;;;18.00;99.90;;;;;;4852768;29;20494;-85
2022/04/13 10:24:33;;;;;;;14.55;6.80;;;18.00;99.90;;;;;;4854612;29;20052;-86
2022/04/13 10:27:00;;;;;;;11.98;5.65;;;17.90;99.90;;;;;;4856382;29;20049;-86
2022/04/13 10:29:27;;;;;;;13.52;6.60;;;17.80;99.90;;;;;;4856333;29;20249;-87
2022/04/13 10:32:10;;;;;;;15.38;6.13;;;17.60;99.90;;;;;;4853444;29;20599;-87
2022/04/13 10:34:38;;;;;;;;;;;17.60;99.90;;;;;;4853656;29;20053;-87
2022/04/13 10:37:14;;;;;;;12.65;6.05;;;17.50;99.90;;;;;;4840310;29;19990;-86
2022/04/13 10:39:41;;;;;;;12.35;5.93;;;17.40;99.90;;;;;;4851755;29;20091;-87
2022/04/13 10:42:09;;;;;;;16.80;6.03;;;17.60;99.90;;;;;;4855673;29;20048;-87
2022/04/13 10:44:58;;;;;;;11.63;5.70;;;17.80;99.90;;;;;;4871205;29;20052;-87
2022/04/13 10:47:30;;;;;;;15.45;5.60;;;18.10;99.90;;;;;;4888362;29;20068;-86
2022/04/13 10:50:11;;;;;;;15.52;5.50;;;18.40;99.90;;;;;;4856897;29;20049;-86
2022/04/13 10:53:05;;;;;;;15.57;6.30;;;18.60;99.90;;;;;;4868290;29;20052;-86
2022/04/13 10:55:34;;;;;;;11.15;4.85;;;18.70;99.90;;;;;;4859088;29;20131;-87
2022/04/13 10:58:35;;;;;;;12.32;5.75;;;18.70;99.90;;;;;;4869296;29;20508;-87
2022/04/13 11:01:15;;;;;;;11.30;4.32;;;18.60;99.90;;;;;;4868531;29;20107;-87
2022/04/13 11:03:42;;;;;;;6.32;3.53;;;18.50;99.90;;;;;;4859840;29;20041;-87
2022/04/13 11:06:10;;;;;;;8.85;3.45;;;18.40;99.90;;;;;;4869825;29;20052;-86
2022/04/13 11:08:57;;;;;;;9.00;3.63;;;18.40;99.90;;;;;;4855744;29;20144;-86
2022/04/13 11:11:26;;;;;;;10.10;4.00;;;18.30;99.90;;;;;;4871536;29;20119;-87
2022/04/13 11:14:18;;;;;;;9.48;3.13;;;18.30;99.90;;;;;;4846724;29;20057;-84
2022/04/13 11:16:44;;;;;;;10.13;3.30;;;18.50;99.90;;;;;;4877505;29;20048;-85
2022/04/13 11:19:22;;;;;;;8.88;3.20;;;18.60;99.90;;;;;;4875020;29;20576;-86
2022/04/13 11:21:51;;;;;;;8.80;2.97;;;18.70;99.90;;;;;;4878079;29;20459;-91
2022/04/13 11:24:36;;;;;;;8.05;3.40;;;18.70;99.90;;;;;;4863324;29;20041;-87
2022/04/13 11:27:03;;;;;;;8.43;2.80;;;18.70;99.90;;;;;;4864836;29;20056;-84
2022/04/13 11:29:58;;;;;;;8.27;3.63;;;18.70;99.90;;;;;;4863097;29;20046;-91
2022/04/13 11:32:42;;;;;;;12.90;3.50;;;18.80;99.90;;;;;;4863951;29;20144;-87
2022/04/13 11:35:23;;;;;;;9.25;3.30;;;18.80;99.90;;;;;;4880370;29;20084;-82
2022/04/13 11:38:03;;;;;;;13.93;3.30;;;18.90;99.90;;;;;;4862788;29;20052;-81
2022/04/13 11:40:28;;;;;;;10.50;3.13;;;18.90;99.90;;;;;;4873218;29;20056;-90
2022/04/13 11:43:05;;;;;;;11.30;3.10;;;18.90;99.90;;;;;;4866166;29;20037;-92
2022/04/13 11:45:31;;;;;;;7.45;3.13;;;18.80;99.90;;;;;;4881404;29;20449;-92
2022/04/13 11:48:19;;;;;;;6.95;3.50;;;18.70;99.90;;;;;;4881878;29;20044;-91
2022/04/13 11:50:45;;;;;;;11.65;3.95;;;18.70;99.90;;;;;;4856718;29;20057;-90
2022/04/13 11:53:53;;;;;;;8.75;3.70;;;18.40;99.90;;;;;;4882747;29;20107;-82
2022/04/13 11:56:31;;;;;;;13.35;5.20;;;18.30;99.90;;;;;;4875329;29;20060;-82
2022/04/13 11:58:57;;;;;;;18.17;5.40;;;18.10;99.90;;;;;;4865009;29;20036;-83
2022/04/13 12:01:24;;;;;;;12.18;4.85;;;18.00;99.90;;;;;;4863331;29;20064;-82
2022/04/13 12:03:50;;;;;;;16.33;5.65;;;17.90;99.90;;;;;;4861630;29;20044;-81
2022/04/13 12:06:21;;;;;;;15.38;4.72;;;17.90;99.90;;;;;;4859438;29;20071;-82
2022/04/13 12:08:53;;;;;;;12.38;3.83;;;17.80;99.90;;;;;;4872648;29;20493;-82
2022/04/13 12:11:21;;;;;;;7.85;3.97;;;17.70;99.90;;;;;;4861629;29;20561;-82
2022/04/13 12:13:54;;;;;;;13.50;3.22;;;17.70;99.90;;;;;;4864832;29;20052;-81
2022/04/13 12:16:21;;;;;;;10.52;2.80;;;17.60;99.90;;;;;;4890204;29;20116;-82
2022/04/13 12:18:47;;;;;;;11.18;3.20;;;17.60;99.90;;;;;;4860531;29;20048;-82
2022/04/13 12:21:16;;;;;;;12.75;4.22;;;17.60;99.90;;;;;;4879375;29;20052;-82
2022/04/13 12:23:43;;;;;;;14.07;3.13;;;17.60;99.90;;;;;;4868587;29;20537;-81
2022/04/13 12:26:09;;;;;;;10.13;3.00;;;17.60;99.90;;;;;;4881685;29;20049;-82
2022/04/13 12:28:36;;;;;;;10.10;2.67;;;17.60;99.90;;;;;;4871297;29;20497;-85
2022/04/13 12:31:07;;;;;;;10.48;2.60;;;17.60;99.90;;;;;;4868221;29;20081;-86
2022/04/13 12:33:34;;;;;;;9.70;2.72;;;17.60;99.90;;;;;;4859523;29;20044;-85
2022/04/13 12:36:02;;;;;;;9.88;2.83;;;17.60;99.90;;;;;;4868636;29;20048;-84
2022/04/13 12:38:30;;;;;;;11.30;2.85;;;17.70;99.90;;;;;;4890824;29;20100;-84
2022/04/13 12:41:07;;;;;;;14.55;3.00;;;17.80;99.90;;;;;;4865155;29;20049;-84
2022/04/13 12:43:33;;;;;;;13.50;4.05;;;17.80;99.90;;;;;;4870700;29;20036;-84
2022/04/13 12:46:08;;;;;;;10.02;3.28;;;17.80;99.90;;;;;;4886442;29;20048;-85